sensor_id;sensor_type;location;lat;lon;timestamp;noise_LAeq;noise_LA_min;noise_LA_max;noise_LA01;noise_LA95
77133;Laerm;26708;50.304;19.028;2023-05-10T00:00:10;41.18;38.20;49.02;;
77133;Laerm;26708;50.304;19.028;2023-05-10T00:02:16;42.15;38.76;51.07;;
77133;Laerm;26708;50.304;19.028;2023-05-10T00:04:22;41.36;38.32;47.45;;
77133;Laerm;26708;50.304;19.028;2023-05-10T00:06:28;40.56;37.87;44.82;;
77133;Laerm;26708;50.304;19.028;2023-05-10T00:08:34;41.58;38.30;48.80;;
77133;Laerm;26708;50.304;19.028;2023-05-10T00:10:42;41.88;38.62;49.49;;
77133;Laerm;26708;50.304;19.028;2023-05-10T00:13:07;42.34;38.57;48.53;;
77133;Laerm;26708;50.304;19.028;2023-05-10T00:15:13;41.54;39.22;47.96;;
77133;Laerm;26708;50.304;19.028;2023-05-10T00:17:19;41.72;38.42;45.11;;
77133;Laerm;26708;50.304;19.028;2023-05-10T00:19:24;41.82;38.80;46.27;;
77133;Laerm;26708;50.304;19.028;2023-05-10T00:21:29;40.72;38.11;44.54;;
77133;Laerm;26708;50.304;19.028;2023-05-10T00:23:39;40.92;37.46;45.09;;
77133;Laerm;26708;50.304;19.028;2023-05-10T00:25:46;52.60;38.57;70.07;;
77133;Laerm;26708;50.304;19.028;2023-05-10T00:27:53;41.61;38.70;45.01;;
77133;Laerm;26708;50.304;19.028;2023-05-10T00:30:00;41.73;39.21;44.90;;
77133;Laerm;26708;50.304;19.028;2023-05-10T00:32:06;41.75;39.14;46.88;;
77133;Laerm;26708;50.304;19.028;2023-05-10T00:34:11;44.12;38.51;54.89;;
77133;Laerm;26708;50.304;19.028;2023-05-10T00:36:26;51.70;41.05;62.48;;
77133;Laerm;26708;50.304;19.028;2023-05-10T00:38:50;41.63;38.87;46.64;;
77133;Laerm;26708;50.304;19.028;2023-05-10T00:41:31;43.32;38.36;54.83;;
77133;Laerm;26708;50.304;19.028;2023-05-10T00:44:41;41.41;38.51;48.89;;
77133;Laerm;26708;50.304;19.028;2023-05-10T00:47:41;41.67;39.33;45.37;;
77133;Laerm;26708;50.304;19.028;2023-05-10T00:50:13;42.02;38.32;51.01;;
77133;Laerm;26708;50.304;19.028;2023-05-10T00:54:02;42.04;38.68;48.79;;
77133;Laerm;26708;50.304;19.028;2023-05-10T01:00:43;40.66;38.00;47.42;;
77133;Laerm;26708;50.304;19.028;2023-05-10T01:07:22;41.06;37.59;48.11;;
77133;Laerm;26708;50.304;19.028;2023-05-10T01:10:10;41.32;38.03;48.84;;
77133;Laerm;26708;50.304;19.028;2023-05-10T01:15:53;44.09;38.79;50.63;;
77133;Laerm;26708;50.304;19.028;2023-05-10T01:19:01;45.14;39.15;51.19;;
77133;Laerm;26708;50.304;19.028;2023-05-10T01:21:46;42.04;39.34;46.72;;
77133;Laerm;26708;50.304;19.028;2023-05-10T01:24:48;41.17;37.92;48.01;;
77133;Laerm;26708;50.304;19.028;2023-05-10T01:31:11;44.96;38.26;51.49;;
77133;Laerm;26708;50.304;19.028;2023-05-10T01:33:30;40.93;38.46;50.97;;
77133;Laerm;26708;50.304;19.028;2023-05-10T01:35:47;41.69;39.07;45.31;;
77133;Laerm;26708;50.304;19.028;2023-05-10T01:38:07;43.11;40.13;47.54;;
77133;Laerm;26708;50.304;19.028;2023-05-10T01:40:30;44.16;40.54;52.79;;
77133;Laerm;26708;50.304;19.028;2023-05-10T01:45:33;53.51;39.12;73.98;;
77133;Laerm;26708;50.304;19.028;2023-05-10T01:47:45;43.01;39.30;47.64;;
77133;Laerm;26708;50.304;19.028;2023-05-10T01:50:02;43.13;38.67;50.51;;
77133;Laerm;26708;50.304;19.028;2023-05-10T01:52:14;42.26;38.76;50.62;;
77133;Laerm;26708;50.304;19.028;2023-05-10T01:54:24;42.02;38.74;47.91;;
77133;Laerm;26708;50.304;19.028;2023-05-10T01:56:35;43.01;39.36;53.61;;
77133;Laerm;26708;50.304;19.028;2023-05-10T01:58:51;41.85;39.50;46.36;;
77133;Laerm;26708;50.304;19.028;2023-05-10T02:01:03;44.69;39.63;51.69;;
77133;Laerm;26708;50.304;19.028;2023-05-10T02:03:12;41.58;38.65;47.46;;
77133;Laerm;26708;50.304;19.028;2023-05-10T02:05:24;41.46;38.63;52.83;;
77133;Laerm;26708;50.304;19.028;2023-05-10T02:07:32;41.11;38.09;46.76;;
77133;Laerm;26708;50.304;19.028;2023-05-10T02:09:40;41.80;38.98;58.90;;
77133;Laerm;26708;50.304;19.028;2023-05-10T02:14:53;47.51;39.49;65.77;;
77133;Laerm;26708;50.304;19.028;2023-05-10T02:17:04;50.14;39.78;68.13;;
77133;Laerm;26708;50.304;19.028;2023-05-10T02:19:15;43.79;39.60;54.78;;
77133;Laerm;26708;50.304;19.028;2023-05-10T02:21:30;54.68;38.93;70.44;;
77133;Laerm;26708;50.304;19.028;2023-05-10T02:23:52;53.74;39.03;72.16;;
77133;Laerm;26708;50.304;19.028;2023-05-10T02:26:01;43.49;38.52;57.66;;
77133;Laerm;26708;50.304;19.028;2023-05-10T02:28:26;43.41;38.84;51.15;;
77133;Laerm;26708;50.304;19.028;2023-05-10T02:30:34;47.21;41.36;52.24;;
77133;Laerm;26708;50.304;19.028;2023-05-10T02:32:46;43.56;40.00;48.91;;
77133;Laerm;26708;50.304;19.028;2023-05-10T02:35:02;53.01;41.13;71.20;;
77133;Laerm;26708;50.304;19.028;2023-05-10T02:37:31;45.80;38.16;61.23;;
77133;Laerm;26708;50.304;19.028;2023-05-10T02:39:40;46.06;39.08;57.60;;
77133;Laerm;26708;50.304;19.028;2023-05-10T02:41:50;46.87;40.24;60.44;;
77133;Laerm;26708;50.304;19.028;2023-05-10T02:50:25;44.78;40.01;53.98;;
77133;Laerm;26708;50.304;19.028;2023-05-10T02:59:57;43.44;39.24;50.11;;
77133;Laerm;26708;50.304;19.028;2023-05-10T03:20:38;54.56;41.44;72.50;;
77133;Laerm;26708;50.304;19.028;2023-05-10T03:22:55;51.12;40.43;68.74;;
77133;Laerm;26708;50.304;19.028;2023-05-10T03:25:40;51.39;40.86;70.52;;
77133;Laerm;26708;50.304;19.028;2023-05-10T03:34:16;45.47;40.76;59.02;;
77133;Laerm;26708;50.304;19.028;2023-05-10T03:36:26;45.13;40.72;54.97;;
77133;Laerm;26708;50.304;19.028;2023-05-10T03:38:31;47.24;40.75;56.13;;
77133;Laerm;26708;50.304;19.028;2023-05-10T03:40:37;46.77;41.76;55.34;;
77133;Laerm;26708;50.304;19.028;2023-05-10T03:42:45;46.05;42.04;51.17;;
77133;Laerm;26708;50.304;19.028;2023-05-10T03:44:50;46.20;42.32;54.50;;
77133;Laerm;26708;50.304;19.028;2023-05-10T03:46:56;47.49;42.42;58.86;;
77133;Laerm;26708;50.304;19.028;2023-05-10T03:49:04;47.88;43.33;58.38;;
77133;Laerm;26708;50.304;19.028;2023-05-10T03:51:09;45.80;41.34;58.39;;
77133;Laerm;26708;50.304;19.028;2023-05-10T03:53:17;50.05;42.35;64.93;;
77133;Laerm;26708;50.304;19.028;2023-05-10T03:55:25;46.58;42.80;57.32;;
77133;Laerm;26708;50.304;19.028;2023-05-10T03:57:44;53.14;42.22;68.12;;
77133;Laerm;26708;50.304;19.028;2023-05-10T03:59:52;55.72;42.72;70.06;;
77133;Laerm;26708;50.304;19.028;2023-05-10T04:01:59;51.67;41.48;68.74;;
77133;Laerm;26708;50.304;19.028;2023-05-10T04:04:07;54.48;41.57;71.78;;
77133;Laerm;26708;50.304;19.028;2023-05-10T04:06:15;54.03;41.39;70.17;;
77133;Laerm;26708;50.304;19.028;2023-05-10T04:08:26;55.41;42.04;73.16;;
77133;Laerm;26708;50.304;19.028;2023-05-10T04:10:32;53.06;42.29;69.43;;
77133;Laerm;26708;50.304;19.028;2023-05-10T04:12:41;47.00;43.11;62.63;;
77133;Laerm;26708;50.304;19.028;2023-05-10T04:14:49;48.86;41.67;63.39;;
77133;Laerm;26708;50.304;19.028;2023-05-10T04:16:53;56.37;41.88;72.41;;
77133;Laerm;26708;50.304;19.028;2023-05-10T04:18:58;56.79;42.55;71.24;;
77133;Laerm;26708;50.304;19.028;2023-05-10T04:21:11;56.34;44.70;69.71;;
77133;Laerm;26708;50.304;19.028;2023-05-10T04:23:15;50.52;42.96;64.16;;
77133;Laerm;26708;50.304;19.028;2023-05-10T04:37:41;55.49;43.46;68.00;;
77133;Laerm;26708;50.304;19.028;2023-05-10T04:40:11;55.04;43.03;74.78;;
77133;Laerm;26708;50.304;19.028;2023-05-10T04:43:06;55.35;43.85;67.72;;
77133;Laerm;26708;50.304;19.028;2023-05-10T04:45:22;53.13;42.76;66.73;;
77133;Laerm;26708;50.304;19.028;2023-05-10T04:47:27;55.47;44.53;68.73;;
77133;Laerm;26708;50.304;19.028;2023-05-10T04:49:32;58.26;43.71;70.00;;
77133;Laerm;26708;50.304;19.028;2023-05-10T04:51:41;58.31;43.03;70.77;;
77133;Laerm;26708;50.304;19.028;2023-05-10T04:53:49;56.02;45.12;68.34;;
77133;Laerm;26708;50.304;19.028;2023-05-10T04:55:57;59.18;44.77;70.93;;
77133;Laerm;26708;50.304;19.028;2023-05-10T05:01:09;56.51;42.92;74.83;;
77133;Laerm;26708;50.304;19.028;2023-05-10T05:03:46;55.65;43.36;68.28;;
77133;Laerm;26708;50.304;19.028;2023-05-10T05:05:54;60.21;43.72;78.19;;
77133;Laerm;26708;50.304;19.028;2023-05-10T05:08:02;56.05;43.99;74.39;;
77133;Laerm;26708;50.304;19.028;2023-05-10T05:10:13;59.77;45.87;76.56;;
77133;Laerm;26708;50.304;19.028;2023-05-10T05:12:18;58.77;44.49;72.52;;
77133;Laerm;26708;50.304;19.028;2023-05-10T05:14:23;56.11;43.90;68.92;;
77133;Laerm;26708;50.304;19.028;2023-05-10T05:16:33;52.54;44.37;68.22;;
77133;Laerm;26708;50.304;19.028;2023-05-10T05:18:41;59.78;45.19;72.28;;
77133;Laerm;26708;50.304;19.028;2023-05-10T05:20:52;55.62;45.26;68.06;;
77133;Laerm;26708;50.304;19.028;2023-05-10T05:22:58;58.71;45.69;70.57;;
77133;Laerm;26708;50.304;19.028;2023-05-10T05:25:10;58.18;44.94;71.37;;
77133;Laerm;26708;50.304;19.028;2023-05-10T05:27:16;56.98;45.04;69.75;;
77133;Laerm;26708;50.304;19.028;2023-05-10T05:29:25;56.86;45.53;72.11;;
77133;Laerm;26708;50.304;19.028;2023-05-10T05:31:34;55.22;45.82;66.14;;
77133;Laerm;26708;50.304;19.028;2023-05-10T05:33:41;57.05;45.72;67.52;;
77133;Laerm;26708;50.304;19.028;2023-05-10T05:35:47;53.59;43.04;66.57;;
77133;Laerm;26708;50.304;19.028;2023-05-10T05:37:58;52.46;44.06;68.89;;
77133;Laerm;26708;50.304;19.028;2023-05-10T05:40:11;56.80;45.20;68.74;;
77133;Laerm;26708;50.304;19.028;2023-05-10T05:42:40;58.94;46.18;70.34;;
77133;Laerm;26708;50.304;19.028;2023-05-10T05:44:45;55.69;43.51;67.62;;
77133;Laerm;26708;50.304;19.028;2023-05-10T05:46:52;58.44;44.29;71.60;;
77133;Laerm;26708;50.304;19.028;2023-05-10T05:48:58;59.17;45.06;71.55;;
77133;Laerm;26708;50.304;19.028;2023-05-10T05:51:05;57.11;44.55;72.24;;
77133;Laerm;26708;50.304;19.028;2023-05-10T05:53:11;58.73;44.15;70.66;;
77133;Laerm;26708;50.304;19.028;2023-05-10T05:55:29;65.36;43.74;85.80;;
77133;Laerm;26708;50.304;19.028;2023-05-10T05:57:39;58.65;44.63;70.69;;
77133;Laerm;26708;50.304;19.028;2023-05-10T05:59:48;56.09;43.77;70.28;;
77133;Laerm;26708;50.304;19.028;2023-05-10T06:01:56;56.10;43.22;69.13;;
77133;Laerm;26708;50.304;19.028;2023-05-10T06:04:04;57.20;43.96;69.71;;
77133;Laerm;26708;50.304;19.028;2023-05-10T06:06:19;56.03;43.07;68.37;;
77133;Laerm;26708;50.304;19.028;2023-05-10T06:08:28;59.96;43.12;76.33;;
77133;Laerm;26708;50.304;19.028;2023-05-10T06:10:35;58.56;44.90;69.16;;
77133;Laerm;26708;50.304;19.028;2023-05-10T06:12:44;58.01;43.69;73.01;;
77133;Laerm;26708;50.304;19.028;2023-05-10T06:14:51;59.38;45.39;69.67;;
77133;Laerm;26708;50.304;19.028;2023-05-10T06:17:19;58.73;46.19;73.61;;
77133;Laerm;26708;50.304;19.028;2023-05-10T06:19:26;55.63;44.61;70.42;;
77133;Laerm;26708;50.304;19.028;2023-05-10T06:21:32;56.62;44.46;70.20;;
77133;Laerm;26708;50.304;19.028;2023-05-10T06:23:39;56.89;43.53;68.62;;
77133;Laerm;26708;50.304;19.028;2023-05-10T06:25:44;54.35;43.01;70.63;;
77133;Laerm;26708;50.304;19.028;2023-05-10T06:28:03;55.79;42.68;67.59;;
77133;Laerm;26708;50.304;19.028;2023-05-10T06:30:15;55.32;43.34;70.65;;
77133;Laerm;26708;50.304;19.028;2023-05-10T06:32:28;54.03;43.11;67.07;;
77133;Laerm;26708;50.304;19.028;2023-05-10T06:34:44;55.30;43.12;67.90;;
77133;Laerm;26708;50.304;19.028;2023-05-10T06:36:52;52.85;41.64;67.33;;
77133;Laerm;26708;50.304;19.028;2023-05-10T06:39:04;56.88;43.56;68.64;;
77133;Laerm;26708;50.304;19.028;2023-05-10T06:41:12;51.74;42.29;63.94;;
77133;Laerm;26708;50.304;19.028;2023-05-10T06:43:20;58.41;43.13;73.22;;
77133;Laerm;26708;50.304;19.028;2023-05-10T06:45:36;52.96;42.71;64.23;;
77133;Laerm;26708;50.304;19.028;2023-05-10T06:48:24;54.65;43.14;66.04;;
77133;Laerm;26708;50.304;19.028;2023-05-10T06:50:39;57.91;44.24;70.43;;
77133;Laerm;26708;50.304;19.028;2023-05-10T06:52:45;57.39;42.65;71.96;;
77133;Laerm;26708;50.304;19.028;2023-05-10T06:54:55;58.08;42.98;73.02;;
77133;Laerm;26708;50.304;19.028;2023-05-10T06:57:10;56.03;43.48;68.64;;
77133;Laerm;26708;50.304;19.028;2023-05-10T06:59:15;58.15;44.22;69.65;;
77133;Laerm;26708;50.304;19.028;2023-05-10T07:01:24;55.17;43.41;66.59;;
77133;Laerm;26708;50.304;19.028;2023-05-10T07:03:32;55.74;42.62;69.28;;
77133;Laerm;26708;50.304;19.028;2023-05-10T07:05:37;55.29;40.87;69.28;;
77133;Laerm;26708;50.304;19.028;2023-05-10T07:07:43;53.00;42.29;66.81;;
77133;Laerm;26708;50.304;19.028;2023-05-10T07:09:47;54.32;43.04;67.33;;
77133;Laerm;26708;50.304;19.028;2023-05-10T07:11:53;56.63;43.06;72.16;;
77133;Laerm;26708;50.304;19.028;2023-05-10T07:14:00;52.45;42.57;65.77;;
77133;Laerm;26708;50.304;19.028;2023-05-10T07:16:05;49.23;42.99;62.15;;
77133;Laerm;26708;50.304;19.028;2023-05-10T07:18:12;54.35;42.62;67.54;;
77133;Laerm;26708;50.304;19.028;2023-05-10T07:20:21;56.19;42.72;67.38;;
77133;Laerm;26708;50.304;19.028;2023-05-10T07:22:37;56.63;42.11;69.98;;
77133;Laerm;26708;50.304;19.028;2023-05-10T07:25:08;56.40;43.55;67.08;;
77133;Laerm;26708;50.304;19.028;2023-05-10T07:30:10;56.20;43.36;70.87;;
77133;Laerm;26708;50.304;19.028;2023-05-10T07:32:25;69.82;41.77;84.11;;
77133;Laerm;26708;50.304;19.028;2023-05-10T07:34:33;52.60;42.75;64.37;;
77133;Laerm;26708;50.304;19.028;2023-05-10T07:37:05;57.42;42.63;69.97;;
77133;Laerm;26708;50.304;19.028;2023-05-10T07:39:16;55.75;43.56;69.31;;
77133;Laerm;26708;50.304;19.028;2023-05-10T07:41:23;56.20;42.59;73.53;;
77133;Laerm;26708;50.304;19.028;2023-05-10T07:43:28;55.07;43.45;68.34;;
77133;Laerm;26708;50.304;19.028;2023-05-10T07:45:34;54.82;42.03;68.08;;
77133;Laerm;26708;50.304;19.028;2023-05-10T07:47:39;55.86;43.94;70.23;;
77133;Laerm;26708;50.304;19.028;2023-05-10T07:49:44;56.52;43.78;68.58;;
77133;Laerm;26708;50.304;19.028;2023-05-10T07:52:09;54.93;43.24;68.86;;
77133;Laerm;26708;50.304;19.028;2023-05-10T07:54:33;55.77;43.28;68.23;;
77133;Laerm;26708;50.304;19.028;2023-05-10T07:56:41;58.42;43.36;70.73;;
77133;Laerm;26708;50.304;19.028;2023-05-10T07:59:15;56.16;43.02;67.78;;
77133;Laerm;26708;50.304;19.028;2023-05-10T08:01:30;54.07;43.99;68.87;;
77133;Laerm;26708;50.304;19.028;2023-05-10T08:03:36;56.72;44.60;68.83;;
77133;Laerm;26708;50.304;19.028;2023-05-10T08:05:41;57.94;44.10;69.44;;
77133;Laerm;26708;50.304;19.028;2023-05-10T08:07:50;53.39;42.84;68.42;;
77133;Laerm;26708;50.304;19.028;2023-05-10T08:09:55;57.50;43.44;68.51;;
77133;Laerm;26708;50.304;19.028;2023-05-10T08:12:00;56.56;42.20;70.98;;
77133;Laerm;26708;50.304;19.028;2023-05-10T08:14:11;53.40;41.86;66.91;;
77133;Laerm;26708;50.304;19.028;2023-05-10T08:16:24;62.67;43.59;92.56;;
77133;Laerm;26708;50.304;19.028;2023-05-10T08:18:28;63.47;42.82;84.30;;
77133;Laerm;26708;50.304;19.028;2023-05-10T08:20:34;56.54;43.35;70.04;;
77133;Laerm;26708;50.304;19.028;2023-05-10T08:22:38;58.13;42.78;71.52;;
77133;Laerm;26708;50.304;19.028;2023-05-10T08:24:45;52.86;43.50;67.03;;
77133;Laerm;26708;50.304;19.028;2023-05-10T08:26:51;56.14;42.70;71.37;;
77133;Laerm;26708;50.304;19.028;2023-05-10T08:28:55;58.46;43.95;69.95;;
77133;Laerm;26708;50.304;19.028;2023-05-10T08:30:59;53.96;41.39;66.86;;
77133;Laerm;26708;50.304;19.028;2023-05-10T08:33:05;53.62;43.46;66.19;;
77133;Laerm;26708;50.304;19.028;2023-05-10T08:35:09;55.03;43.99;68.49;;
77133;Laerm;26708;50.304;19.028;2023-05-10T08:37:14;56.55;44.88;70.20;;
77133;Laerm;26708;50.304;19.028;2023-05-10T08:39:19;55.42;44.51;66.17;;
77133;Laerm;26708;50.304;19.028;2023-05-10T08:41:33;56.11;42.74;65.43;;
77133;Laerm;26708;50.304;19.028;2023-05-10T08:43:38;52.97;42.74;65.65;;
77133;Laerm;26708;50.304;19.028;2023-05-10T08:45:53;55.93;43.84;67.93;;
77133;Laerm;26708;50.304;19.028;2023-05-10T08:48:01;53.39;42.45;66.84;;
77133;Laerm;26708;50.304;19.028;2023-05-10T08:50:07;53.41;43.48;66.25;;
77133;Laerm;26708;50.304;19.028;2023-05-10T08:52:16;53.70;42.57;66.14;;
77133;Laerm;26708;50.304;19.028;2023-05-10T08:54:22;55.94;43.94;67.09;;
77133;Laerm;26708;50.304;19.028;2023-05-10T08:56:29;55.98;43.36;68.61;;
77133;Laerm;26708;50.304;19.028;2023-05-10T08:58:36;57.63;42.94;70.82;;
77133;Laerm;26708;50.304;19.028;2023-05-10T09:00:42;56.71;42.66;69.64;;
77133;Laerm;26708;50.304;19.028;2023-05-10T09:02:49;57.14;43.37;67.57;;
77133;Laerm;26708;50.304;19.028;2023-05-10T09:04:55;56.00;42.55;74.35;;
77133;Laerm;26708;50.304;19.028;2023-05-10T09:06:59;56.35;45.05;70.81;;
77133;Laerm;26708;50.304;19.028;2023-05-10T09:09:05;55.11;42.16;67.73;;
77133;Laerm;26708;50.304;19.028;2023-05-10T09:11:11;54.93;42.99;69.90;;
77133;Laerm;26708;50.304;19.028;2023-05-10T09:13:21;57.64;42.41;70.29;;
77133;Laerm;26708;50.304;19.028;2023-05-10T09:15:26;54.33;42.58;67.42;;
77133;Laerm;26708;50.304;19.028;2023-05-10T09:17:31;56.92;42.59;68.84;;
77133;Laerm;26708;50.304;19.028;2023-05-10T09:19:36;54.40;41.86;69.80;;
77133;Laerm;26708;50.304;19.028;2023-05-10T09:21:41;55.60;42.91;64.75;;
77133;Laerm;26708;50.304;19.028;2023-05-10T09:23:47;56.41;43.48;68.35;;
77133;Laerm;26708;50.304;19.028;2023-05-10T09:26:02;56.46;43.21;67.50;;
77133;Laerm;26708;50.304;19.028;2023-05-10T09:28:09;56.66;42.92;65.90;;
77133;Laerm;26708;50.304;19.028;2023-05-10T09:30:25;56.21;44.40;67.92;;
77133;Laerm;26708;50.304;19.028;2023-05-10T09:32:40;56.29;43.39;67.56;;
77133;Laerm;26708;50.304;19.028;2023-05-10T09:34:49;56.31;43.03;68.28;;
77133;Laerm;26708;50.304;19.028;2023-05-10T09:36:57;55.42;43.51;70.72;;
77133;Laerm;26708;50.304;19.028;2023-05-10T09:39:02;56.56;42.82;68.78;;
77133;Laerm;26708;50.304;19.028;2023-05-10T09:41:16;55.19;43.12;68.49;;
77133;Laerm;26708;50.304;19.028;2023-05-10T09:43:22;55.65;44.48;74.12;;
77133;Laerm;26708;50.304;19.028;2023-05-10T09:45:32;56.58;46.45;70.25;;
77133;Laerm;26708;50.304;19.028;2023-05-10T09:47:37;56.56;45.48;69.47;;
77133;Laerm;26708;50.304;19.028;2023-05-10T09:49:42;58.40;47.52;66.03;;
77133;Laerm;26708;50.304;19.028;2023-05-10T09:51:59;58.85;45.46;71.45;;
77133;Laerm;26708;50.304;19.028;2023-05-10T09:54:12;57.79;45.49;67.94;;
77133;Laerm;26708;50.304;19.028;2023-05-10T09:56:33;56.80;45.25;67.49;;
77133;Laerm;26708;50.304;19.028;2023-05-10T09:58:40;58.36;45.46;68.94;;
77133;Laerm;26708;50.304;19.028;2023-05-10T10:00:47;58.90;46.30;70.12;;
77133;Laerm;26708;50.304;19.028;2023-05-10T10:02:56;56.85;46.61;70.11;;
77133;Laerm;26708;50.304;19.028;2023-05-10T10:05:02;55.20;45.30;70.02;;
77133;Laerm;26708;50.304;19.028;2023-05-10T10:07:07;56.79;44.37;67.63;;
77133;Laerm;26708;50.304;19.028;2023-05-10T10:09:14;58.78;45.16;74.67;;
77133;Laerm;26708;50.304;19.028;2023-05-10T10:11:20;55.76;44.17;67.16;;
77133;Laerm;26708;50.304;19.028;2023-05-10T10:13:25;56.95;44.67;70.45;;
77133;Laerm;26708;50.304;19.028;2023-05-10T10:15:32;54.60;44.40;67.95;;
77133;Laerm;26708;50.304;19.028;2023-05-10T10:17:43;54.14;45.36;67.84;;
77133;Laerm;26708;50.304;19.028;2023-05-10T10:19:49;53.55;45.22;63.79;;
77133;Laerm;26708;50.304;19.028;2023-05-10T10:21:54;56.26;43.71;71.24;;
77133;Laerm;26708;50.304;19.028;2023-05-10T10:24:00;56.43;45.87;72.49;;
77133;Laerm;26708;50.304;19.028;2023-05-10T10:26:08;57.09;45.86;66.53;;
77133;Laerm;26708;50.304;19.028;2023-05-10T10:28:33;56.63;44.37;69.78;;
77133;Laerm;26708;50.304;19.028;2023-05-10T10:30:44;56.06;43.59;70.54;;
77133;Laerm;26708;50.304;19.028;2023-05-10T10:35:50;54.66;43.53;67.52;;
77133;Laerm;26708;50.304;19.028;2023-05-10T10:37:56;58.63;44.43;72.38;;
77133;Laerm;26708;50.304;19.028;2023-05-10T10:40:24;57.20;45.10;68.42;;
77133;Laerm;26708;50.304;19.028;2023-05-10T10:42:46;56.43;44.65;67.70;;
77133;Laerm;26708;50.304;19.028;2023-05-10T10:45:13;58.19;44.85;70.95;;
77133;Laerm;26708;50.304;19.028;2023-05-10T10:47:23;54.90;43.14;66.68;;
77133;Laerm;26708;50.304;19.028;2023-05-10T10:49:42;56.58;44.19;70.69;;
77133;Laerm;26708;50.304;19.028;2023-05-10T10:52:15;55.49;46.73;67.41;;
77133;Laerm;26708;50.304;19.028;2023-05-10T10:54:28;55.91;44.44;65.78;;
77133;Laerm;26708;50.304;19.028;2023-05-10T10:56:34;54.97;44.09;68.61;;
77133;Laerm;26708;50.304;19.028;2023-05-10T10:58:39;56.68;43.69;68.26;;
77133;Laerm;26708;50.304;19.028;2023-05-10T11:00:44;57.54;43.95;68.78;;
77133;Laerm;26708;50.304;19.028;2023-05-10T11:02:52;57.57;44.77;74.84;;
77133;Laerm;26708;50.304;19.028;2023-05-10T11:04:59;58.01;44.90;72.28;;
77133;Laerm;26708;50.304;19.028;2023-05-10T11:07:17;57.75;45.02;69.35;;
77133;Laerm;26708;50.304;19.028;2023-05-10T11:09:25;58.69;45.97;72.22;;
77133;Laerm;26708;50.304;19.028;2023-05-10T11:11:31;56.07;44.25;70.76;;
77133;Laerm;26708;50.304;19.028;2023-05-10T11:13:39;57.48;44.45;70.93;;
77133;Laerm;26708;50.304;19.028;2023-05-10T11:15:49;56.79;44.19;68.73;;
77133;Laerm;26708;50.304;19.028;2023-05-10T11:17:53;54.43;44.38;66.18;;
77133;Laerm;26708;50.304;19.028;2023-05-10T11:20:14;56.44;44.76;68.46;;
77133;Laerm;26708;50.304;19.028;2023-05-10T11:22:27;56.16;45.06;68.67;;
77133;Laerm;26708;50.304;19.028;2023-05-10T11:24:35;58.62;44.26;70.78;;
77133;Laerm;26708;50.304;19.028;2023-05-10T11:26:41;57.15;43.58;74.77;;
77133;Laerm;26708;50.304;19.028;2023-05-10T11:28:48;56.17;43.62;68.82;;
77133;Laerm;26708;50.304;19.028;2023-05-10T11:30:54;58.41;44.13;72.39;;
77133;Laerm;26708;50.304;19.028;2023-05-10T11:32:59;58.01;45.60;68.56;;
77133;Laerm;26708;50.304;19.028;2023-05-10T11:35:11;55.52;44.74;66.88;;
77133;Laerm;26708;50.304;19.028;2023-05-10T11:37:18;55.24;44.68;65.81;;
77133;Laerm;26708;50.304;19.028;2023-05-10T11:39:27;53.78;43.42;65.49;;
77133;Laerm;26708;50.304;19.028;2023-05-10T11:41:33;59.28;44.55;77.50;;
77133;Laerm;26708;50.304;19.028;2023-05-10T11:43:39;55.26;44.70;72.93;;
77133;Laerm;26708;50.304;19.028;2023-05-10T11:45:45;56.04;45.27;73.10;;
77133;Laerm;26708;50.304;19.028;2023-05-10T11:47:50;58.32;45.13;74.94;;
77133;Laerm;26708;50.304;19.028;2023-05-10T11:49:55;57.90;44.42;69.29;;
77133;Laerm;26708;50.304;19.028;2023-05-10T11:52:09;61.17;45.65;77.42;;
77133;Laerm;26708;50.304;19.028;2023-05-10T11:54:14;57.70;44.36;68.51;;
77133;Laerm;26708;50.304;19.028;2023-05-10T11:56:19;55.85;44.74;67.83;;
77133;Laerm;26708;50.304;19.028;2023-05-10T11:58:24;56.67;44.45;67.59;;
77133;Laerm;26708;50.304;19.028;2023-05-10T12:00:31;58.80;44.98;73.38;;
77133;Laerm;26708;50.304;19.028;2023-05-10T12:02:37;58.09;44.83;69.15;;
77133;Laerm;26708;50.304;19.028;2023-05-10T12:04:42;56.10;43.92;69.24;;
77133;Laerm;26708;50.304;19.028;2023-05-10T12:06:48;55.93;43.15;66.48;;
77133;Laerm;26708;50.304;19.028;2023-05-10T12:08:55;57.51;43.35;67.32;;
77133;Laerm;26708;50.304;19.028;2023-05-10T12:11:08;59.97;43.51;75.28;;
77133;Laerm;26708;50.304;19.028;2023-05-10T12:13:16;58.59;44.88;70.54;;
77133;Laerm;26708;50.304;19.028;2023-05-10T12:15:23;57.98;45.47;69.19;;
77133;Laerm;26708;50.304;19.028;2023-05-10T12:17:29;60.36;46.47;72.46;;
77133;Laerm;26708;50.304;19.028;2023-05-10T12:19:38;57.44;45.23;74.16;;
77133;Laerm;26708;50.304;19.028;2023-05-10T12:21:44;57.65;44.18;69.62;;
77133;Laerm;26708;50.304;19.028;2023-05-10T12:23:54;58.53;44.33;74.35;;
77133;Laerm;26708;50.304;19.028;2023-05-10T12:26:03;56.02;43.38;66.73;;
77133;Laerm;26708;50.304;19.028;2023-05-10T12:28:10;56.24;44.48;70.71;;
77133;Laerm;26708;50.304;19.028;2023-05-10T12:30:20;59.73;44.76;76.91;;
77133;Laerm;26708;50.304;19.028;2023-05-10T12:32:38;57.12;44.38;73.31;;
77133;Laerm;26708;50.304;19.028;2023-05-10T12:34:46;56.97;46.21;68.97;;
77133;Laerm;26708;50.304;19.028;2023-05-10T12:36:51;54.04;44.39;67.77;;
77133;Laerm;26708;50.304;19.028;2023-05-10T12:39:04;57.06;44.84;70.81;;
77133;Laerm;26708;50.304;19.028;2023-05-10T12:41:11;56.94;45.29;70.15;;
77133;Laerm;26708;50.304;19.028;2023-05-10T12:43:16;61.85;46.39;82.46;;
77133;Laerm;26708;50.304;19.028;2023-05-10T12:45:22;65.14;46.22;87.19;;
77133;Laerm;26708;50.304;19.028;2023-05-10T12:47:26;57.26;45.44;66.49;;
77133;Laerm;26708;50.304;19.028;2023-05-10T12:49:31;55.69;45.04;67.10;;
77133;Laerm;26708;50.304;19.028;2023-05-10T12:51:36;57.89;44.00;69.95;;
77133;Laerm;26708;50.304;19.028;2023-05-10T12:53:41;59.70;47.17;85.60;;
77133;Laerm;26708;50.304;19.028;2023-05-10T12:55:51;58.84;45.62;69.19;;
77133;Laerm;26708;50.304;19.028;2023-05-10T12:57:57;58.35;43.60;69.60;;
77133;Laerm;26708;50.304;19.028;2023-05-10T13:00:02;58.17;46.68;70.22;;
77133;Laerm;26708;50.304;19.028;2023-05-10T13:02:08;56.38;44.65;69.34;;
77133;Laerm;26708;50.304;19.028;2023-05-10T13:04:14;54.94;44.56;65.72;;
77133;Laerm;26708;50.304;19.028;2023-05-10T13:06:19;58.25;44.68;72.52;;
77133;Laerm;26708;50.304;19.028;2023-05-10T13:08:24;54.36;45.26;67.04;;
77133;Laerm;26708;50.304;19.028;2023-05-10T13:10:30;56.73;45.12;68.83;;
77133;Laerm;26708;50.304;19.028;2023-05-10T13:12:38;61.95;47.10;78.62;;
77133;Laerm;26708;50.304;19.028;2023-05-10T13:14:44;56.90;45.78;69.74;;
77133;Laerm;26708;50.304;19.028;2023-05-10T13:16:50;58.90;46.18;70.73;;
77133;Laerm;26708;50.304;19.028;2023-05-10T13:18:55;55.59;44.81;68.24;;
77133;Laerm;26708;50.304;19.028;2023-05-10T13:21:01;56.67;45.11;68.63;;
77133;Laerm;26708;50.304;19.028;2023-05-10T13:23:08;57.86;45.49;70.38;;
77133;Laerm;26708;50.304;19.028;2023-05-10T13:25:14;57.79;45.39;66.73;;